createdAt,value
2023-04-09T00:02:11.398Z,9.20
2023-04-09T00:04:39.741Z,13.47
2023-04-09T00:07:08.122Z,10.53
2023-04-09T00:09:36.742Z,12.73
2023-04-09T00:12:05.366Z,12.63
2023-04-09T00:14:35.044Z,12.00
2023-04-09T00:17:03.375Z,11.57
2023-04-09T00:19:31.646Z,11.37
2023-04-09T00:22:00.007Z,10.67
2023-04-09T00:24:28.384Z,10.93
2023-04-09T00:26:56.898Z,12.40
2023-04-09T00:29:25.365Z,13.27
2023-04-09T00:31:55.254Z,12.40
2023-04-09T00:34:23.673Z,12.57
2023-04-09T00:36:52.023Z,13.00
2023-04-09T00:39:20.455Z,11.40
2023-04-09T00:41:49.302Z,13.17
2023-04-09T00:44:17.652Z,11.20
2023-04-09T00:46:46.159Z,13.43
2023-04-09T00:49:16.179Z,10.60
2023-04-09T00:51:47.136Z,13.10
2023-04-09T00:54:16.144Z,15.47
2023-04-09T00:56:45.287Z,13.17
2023-04-09T00:59:13.667Z,12.23
2023-04-09T01:01:42.094Z,13.90
2023-04-09T01:04:10.896Z,11.47
2023-04-09T01:06:49.507Z,11.03
2023-04-09T01:09:26.105Z,13.80
2023-04-09T01:12:06.545Z,12.10
2023-04-09T01:14:41.860Z,11.37
2023-04-09T01:17:20.475Z,11.23
2023-04-09T01:20:00.298Z,11.10
2023-04-09T01:22:48.576Z,10.83
2023-04-09T01:25:32.167Z,14.33
2023-04-09T01:28:19.924Z,13.77
2023-04-09T01:30:51.524Z,12.97
2023-04-09T01:33:21.705Z,12.60
2023-04-09T01:35:51.534Z,13.10
2023-04-09T01:38:22.204Z,16.67
2023-04-09T01:40:51.860Z,13.53
2023-04-09T01:43:22.468Z,13.13
2023-04-09T01:45:52.006Z,15.47
2023-04-09T01:48:21.008Z,15.57
2023-04-09T01:50:50.939Z,15.53
2023-04-09T01:53:19.631Z,14.73
2023-04-09T01:55:48.050Z,12.53
2023-04-09T01:58:16.633Z,11.77
2023-04-09T02:00:49.966Z,16.03
2023-04-09T02:03:23.734Z,12.90
2023-04-09T02:06:09.223Z,18.27
2023-04-09T02:08:39.080Z,17.10
2023-04-09T02:11:11.368Z,14.40
2023-04-09T02:13:42.732Z,13.43
2023-04-09T02:16:14.783Z,14.83
2023-04-09T02:18:43.784Z,16.17
2023-04-09T02:21:13.768Z,14.80
2023-04-09T02:23:42.355Z,16.63
2023-04-09T02:26:10.823Z,14.63
2023-04-09T02:28:39.255Z,14.10
2023-04-09T02:31:07.738Z,15.60
2023-04-09T02:33:37.480Z,14.70
2023-04-09T02:36:06.819Z,15.70
2023-04-09T02:38:35.727Z,16.20
2023-04-09T02:41:04.209Z,15.83
2023-04-09T02:43:32.591Z,14.30
2023-04-09T02:46:01.043Z,14.47
2023-04-09T02:48:29.424Z,14.50
2023-04-09T02:50:59.804Z,14.67
2023-04-09T02:53:28.260Z,15.27
2023-04-09T02:55:56.620Z,14.57
2023-04-09T02:58:24.979Z,15.43
2023-04-09T03:00:53.388Z,17.87
2023-04-09T03:03:21.976Z,14.73
2023-04-09T03:05:50.486Z,16.87
2023-04-09T03:08:20.507Z,18.20
2023-04-09T03:10:49.009Z,17.80
2023-04-09T03:13:17.451Z,14.07
2023-04-09T03:15:45.959Z,13.77
2023-04-09T03:18:14.385Z,18.10
2023-04-09T03:20:43.936Z,14.67
2023-04-09T03:23:14.446Z,13.80
2023-04-09T03:25:48.680Z,15.10
2023-04-09T03:28:18.859Z,14.57
2023-04-09T03:30:53.972Z,16.63
2023-04-09T03:33:23.682Z,16.10
2023-04-09T03:35:55.765Z,15.33
2023-04-09T03:38:47.153Z,14.00
2023-04-09T03:41:28.359Z,17.20
2023-04-09T03:43:59.108Z,16.27
2023-04-09T03:46:32.601Z,15.60
2023-04-09T03:49:02.524Z,18.70
2023-04-09T03:51:44.574Z,16.30
2023-04-09T03:54:13.703Z,17.93
2023-04-09T03:56:44.372Z,16.73
2023-04-09T03:59:15.144Z,17.30
2023-04-09T04:01:47.189Z,15.93
2023-04-09T04:04:16.437Z,15.80
2023-04-09T04:06:49.240Z,17.20
2023-04-09T04:09:46.726Z,16.53
2023-04-09T04:12:19.813Z,19.80
2023-04-09T04:15:09.981Z,19.77
2023-04-09T04:17:43.987Z,17.33
2023-04-09T04:20:24.348Z,18.83
2023-04-09T04:23:02.172Z,18.60
2023-04-09T04:25:31.394Z,16.33
2023-04-09T04:28:01.219Z,20.83
2023-04-09T04:30:38.243Z,16.10
2023-04-09T04:33:09.797Z,16.50
2023-04-09T04:35:52.499Z,19.87
2023-04-09T04:38:50.290Z,17.73
2023-04-09T04:41:33.160Z,17.17
2023-04-09T04:44:29.073Z,18.57
2023-04-09T04:47:06.709Z,18.83
2023-04-09T04:49:35.661Z,18.73
2023-04-09T04:52:07.534Z,21.63
2023-04-09T04:54:36.527Z,19.23
2023-04-09T04:57:05.110Z,19.67
2023-04-09T04:59:42.016Z,19.20
2023-04-09T05:02:15.866Z,17.93
2023-04-09T05:05:15.472Z,17.57
2023-04-09T05:07:50.467Z,19.90
2023-04-09T05:10:19.058Z,18.87
2023-04-09T05:12:47.995Z,18.53
2023-04-09T05:15:25.604Z,18.90
2023-04-09T05:17:54.327Z,20.93
2023-04-09T05:20:23.286Z,18.57
2023-04-09T05:23:04.478Z,18.03
2023-04-09T05:25:38.122Z,20.13
2023-04-09T05:28:07.795Z,19.40
2023-04-09T05:30:38.775Z,20.57
2023-04-09T05:33:07.455Z,17.70
2023-04-09T05:35:40.275Z,18.70
2023-04-09T05:38:08.792Z,18.40
2023-04-09T05:40:37.248Z,20.87
2023-04-09T05:43:11.541Z,20.50
2023-04-09T05:45:44.416Z,20.67
2023-04-09T05:48:12.892Z,18.80
2023-04-09T05:50:54.126Z,19.80
2023-04-09T05:53:25.947Z,17.87
2023-04-09T05:55:54.340Z,19.03
2023-04-09T05:58:27.388Z,17.30
2023-04-09T06:01:00.134Z,19.20
2023-04-09T06:03:28.912Z,24.67
2023-04-09T06:05:57.405Z,19.00
2023-04-09T06:08:25.856Z,18.83
2023-04-09T06:10:54.239Z,20.43
2023-04-09T06:13:22.640Z,18.37
2023-04-09T06:15:51.203Z,18.73
2023-04-09T06:18:20.928Z,18.37
2023-04-09T06:20:49.224Z,20.43
2023-04-09T06:23:19.644Z,19.27
2023-04-09T06:25:47.961Z,20.30
2023-04-09T06:28:16.456Z,18.67
2023-04-09T06:30:45.032Z,18.93
2023-04-09T06:33:13.430Z,17.97
2023-04-09T06:35:43.754Z,19.63
2023-04-09T06:38:12.074Z,18.80
2023-04-09T06:40:40.580Z,20.40
2023-04-09T06:43:09.640Z,20.40
2023-04-09T06:45:44.004Z,18.13
2023-04-09T06:48:12.854Z,20.30
2023-04-09T06:50:42.576Z,20.53
2023-04-09T06:53:10.993Z,17.97
2023-04-09T06:55:39.569Z,20.23
2023-04-09T06:58:07.934Z,22.40
2023-04-09T07:00:36.287Z,18.10
2023-04-09T07:03:05.622Z,20.33
2023-04-09T07:05:34.152Z,19.53
2023-04-09T07:08:04.250Z,19.23
2023-04-09T07:10:32.577Z,20.50
2023-04-09T07:13:01.094Z,17.60
2023-04-09T07:15:29.386Z,19.23
2023-04-09T07:17:57.990Z,20.40
2023-04-09T07:20:26.349Z,22.33
2023-04-09T07:22:54.695Z,20.07
2023-04-09T07:25:24.477Z,21.80
2023-04-09T07:27:53.191Z,20.87
2023-04-09T07:30:22.109Z,20.17
2023-04-09T07:32:51.024Z,18.27
2023-04-09T07:35:19.662Z,19.47
2023-04-09T07:37:48.017Z,17.63
2023-04-09T07:40:16.525Z,19.77
2023-04-09T07:42:46.263Z,17.80
2023-04-09T07:45:14.611Z,18.73
2023-04-09T07:47:42.960Z,21.93
2023-04-09T07:50:12.403Z,18.73
2023-04-09T07:52:40.889Z,20.50
2023-04-09T07:55:10.084Z,22.60
2023-04-09T07:57:38.529Z,21.17
2023-04-09T08:00:10.518Z,21.50
2023-04-09T08:02:42.516Z,19.33
2023-04-09T08:05:11.618Z,20.07
2023-04-09T08:07:40.092Z,18.27
2023-04-09T08:10:14.962Z,18.70
2023-04-09T08:12:43.496Z,19.40
2023-04-09T08:15:13.513Z,21.27
2023-04-09T08:17:42.037Z,19.83
2023-04-09T08:20:12.311Z,19.23
2023-04-09T08:22:42.270Z,16.30
2023-04-09T08:25:10.701Z,19.03
2023-04-09T08:27:39.862Z,15.50
2023-04-09T08:30:10.234Z,19.93
2023-04-09T08:32:40.090Z,16.70
2023-04-09T08:35:10.335Z,20.77
2023-04-09T08:37:38.698Z,17.17
2023-04-09T08:40:10.042Z,16.63
2023-04-09T08:42:41.315Z,19.93
2023-04-09T08:45:11.758Z,18.87
2023-04-09T08:47:43.361Z,17.17
2023-04-09T08:50:12.186Z,21.20
2023-04-09T08:52:41.728Z,17.03
2023-04-09T08:55:13.204Z,16.70
2023-04-09T08:57:42.051Z,16.80
2023-04-09T09:00:11.502Z,17.60
2023-04-09T09:03:02.986Z,17.30
2023-04-09T09:05:38.854Z,15.90
2023-04-09T09:08:08.816Z,16.20
2023-04-09T09:10:42.280Z,14.80
2023-04-09T09:13:23.215Z,14.67
2023-04-09T09:15:55.115Z,15.67
2023-04-09T09:18:40.494Z,14.63
2023-04-09T09:21:12.951Z,15.23
2023-04-09T09:23:42.434Z,15.43
2023-04-09T09:26:16.382Z,15.23
2023-04-09T09:28:45.468Z,16.43
2023-04-09T09:31:14.808Z,14.23
2023-04-09T09:33:45.154Z,13.67
2023-04-09T09:36:13.711Z,14.63
2023-04-09T09:38:54.878Z,15.03
2023-04-09T09:41:25.052Z,14.40
2023-04-09T09:43:53.704Z,13.17
2023-04-09T09:46:23.337Z,13.87
2023-04-09T09:48:53.509Z,14.33
2023-04-09T09:51:28.827Z,12.30
2023-04-09T09:53:58.489Z,14.23
2023-04-09T09:56:33.594Z,13.70
2023-04-09T09:59:08.900Z,14.23
2023-04-09T10:01:38.513Z,12.60
2023-04-09T10:04:13.603Z,14.33
2023-04-09T10:06:46.196Z,12.83
2023-04-09T10:09:14.923Z,12.70
2023-04-09T10:11:45.630Z,13.90
2023-04-09T10:14:15.103Z,12.97
2023-04-09T10:16:44.112Z,13.53
2023-04-09T10:19:15.261Z,15.10
2023-04-09T10:21:49.665Z,14.93
2023-04-09T10:24:18.618Z,12.57
2023-04-09T10:26:47.098Z,12.30
2023-04-09T10:29:17.162Z,12.87
2023-04-09T10:31:56.147Z,12.20
2023-04-09T10:34:29.365Z,10.83
2023-04-09T10:36:59.778Z,12.50
2023-04-09T10:39:29.956Z,11.80
2023-04-09T10:41:59.448Z,10.43
2023-04-09T10:44:31.868Z,12.77
2023-04-09T10:47:00.419Z,12.70
2023-04-09T10:49:38.100Z,11.50
2023-04-09T10:52:11.935Z,11.73
2023-04-09T10:54:48.295Z,10.23
2023-04-09T10:57:20.770Z,11.33
2023-04-09T10:59:51.599Z,8.67
2023-04-09T11:03:01.785Z,9.43
2023-04-09T11:05:35.240Z,9.90
2023-04-09T11:08:09.403Z,9.77
2023-04-09T11:10:38.674Z,9.07
2023-04-09T11:13:07.243Z,9.80
2023-04-09T11:15:37.822Z,8.97
2023-04-09T11:18:07.031Z,10.23
2023-04-09T11:20:37.399Z,9.80
2023-04-09T11:23:06.412Z,9.10
2023-04-09T11:25:36.173Z,9.50
2023-04-09T11:28:06.122Z,10.03
2023-04-09T11:30:35.734Z,11.47
2023-04-09T11:33:04.436Z,9.63
2023-04-09T11:35:37.691Z,10.30
2023-04-09T11:38:10.413Z,10.57
2023-04-09T11:40:47.818Z,12.50
2023-04-09T11:43:17.045Z,10.27
2023-04-09T11:45:48.922Z,10.73
2023-04-09T11:48:19.202Z,11.50
2023-04-09T11:50:49.259Z,12.17
2023-04-09T11:53:19.693Z,12.27
2023-04-09T11:55:51.525Z,12.00
2023-04-09T11:58:23.800Z,14.63
2023-04-09T12:00:55.621Z,11.40
2023-04-09T12:03:32.426Z,11.37
2023-04-09T12:06:04.275Z,10.73
2023-04-09T12:08:34.661Z,8.80
2023-04-09T12:11:11.440Z,9.60
2023-04-09T12:13:43.456Z,8.17
2023-04-09T12:16:12.859Z,9.40
2023-04-09T12:18:41.690Z,9.80
2023-04-09T12:21:11.525Z,9.87
2023-04-09T12:23:39.957Z,9.03
2023-04-09T12:26:08.442Z,9.87
2023-04-09T12:28:37.026Z,9.83
2023-04-09T12:31:06.018Z,10.27
2023-04-09T12:33:34.543Z,8.80
2023-04-09T12:36:03.010Z,9.57
2023-04-09T12:38:32.858Z,9.10
2023-04-09T12:41:01.387Z,9.57
2023-04-09T12:43:29.804Z,8.30
2023-04-09T12:45:58.255Z,9.03
2023-04-09T12:48:26.835Z,9.07
2023-04-09T12:50:55.233Z,8.97
2023-04-09T12:53:23.728Z,7.90
2023-04-09T12:55:53.451Z,7.00
2023-04-09T12:58:21.814Z,7.37
2023-04-09T13:00:50.120Z,8.57
2023-04-09T13:03:18.689Z,7.37
2023-04-09T13:05:47.316Z,7.47
2023-04-09T13:08:16.260Z,7.57
2023-04-09T13:10:45.146Z,6.83
2023-04-09T13:13:14.969Z,7.60
2023-04-09T13:15:45.013Z,6.83
2023-04-09T13:18:14.511Z,6.70
2023-04-09T13:20:43.023Z,7.27
2023-04-09T13:23:11.677Z,7.77
2023-04-09T13:25:40.062Z,7.17
2023-04-09T13:28:09.134Z,8.23
2023-04-09T13:30:39.064Z,7.97
2023-04-09T13:33:07.494Z,7.73
2023-04-09T13:35:35.927Z,7.27
2023-04-09T13:38:04.268Z,8.10
2023-04-09T13:40:32.729Z,7.90
2023-04-09T13:43:01.136Z,6.93
2023-04-09T13:45:29.619Z,7.10
2023-04-09T13:48:00.682Z,5.90
2023-04-09T13:50:29.144Z,6.37
2023-04-09T13:52:57.461Z,6.40
2023-04-09T13:57:54.165Z,6.70
2023-04-09T14:00:22.585Z,6.23
2023-04-09T14:02:51.183Z,6.17
2023-04-09T14:05:21.193Z,5.57
2023-04-09T14:07:49.684Z,5.90
2023-04-09T14:10:18.142Z,6.20
2023-04-09T14:12:46.573Z,6.20
2023-04-09T14:15:15.747Z,6.00
2023-04-09T14:17:45.385Z,5.63
2023-04-09T14:20:14.164Z,6.00
2023-04-09T14:22:49.070Z,4.97
2023-04-09T14:25:17.675Z,6.63
2023-04-09T14:27:46.352Z,6.13
2023-04-09T14:30:15.106Z,6.73
2023-04-09T14:32:43.551Z,6.17
2023-04-09T14:35:11.909Z,6.40
2023-04-09T14:37:41.034Z,6.57
2023-04-09T14:40:11.795Z,6.50
2023-04-09T14:42:40.802Z,5.80
2023-04-09T14:45:10.391Z,6.30
2023-04-09T14:47:38.860Z,6.03
2023-04-09T14:50:08.299Z,6.00
2023-04-09T14:52:38.193Z,5.80
2023-04-09T14:55:12.180Z,7.90
2023-04-09T14:57:42.737Z,5.47
2023-04-09T15:00:13.804Z,6.60
2023-04-09T15:02:42.554Z,5.60
2023-04-09T15:05:12.132Z,6.40
2023-04-09T15:07:40.637Z,6.33
2023-04-09T15:10:10.592Z,4.90
2023-04-09T15:12:41.865Z,4.80
2023-04-09T15:15:11.223Z,4.30
2023-04-09T15:17:39.617Z,4.73
2023-04-09T15:20:09.400Z,5.20
2023-04-09T15:22:37.727Z,4.90
2023-04-09T15:25:07.314Z,6.00
2023-04-09T15:27:35.985Z,5.60
2023-04-09T15:30:07.654Z,5.23
2023-04-09T15:32:36.250Z,5.00
2023-04-09T15:35:05.006Z,4.93
2023-04-09T15:37:33.638Z,5.50
2023-04-09T15:40:02.078Z,4.93
2023-04-09T15:42:30.473Z,4.90
2023-04-09T15:44:58.874Z,5.30
2023-04-09T15:47:29.268Z,5.60
2023-04-09T15:49:59.729Z,4.80
2023-04-09T15:52:28.186Z,4.87
2023-04-09T15:54:56.527Z,5.87
2023-04-09T15:57:24.929Z,5.57
2023-04-09T15:59:54.046Z,4.50
2023-04-09T16:02:24.102Z,5.70
2023-04-09T16:04:55.658Z,5.07
2023-04-09T16:07:24.060Z,5.20
2023-04-09T16:09:52.387Z,4.00
2023-04-09T16:12:20.785Z,5.93
2023-04-09T16:14:49.268Z,5.10
2023-04-09T16:17:17.849Z,4.83
2023-04-09T16:19:46.444Z,4.57
2023-04-09T16:22:16.703Z,4.67
2023-04-09T16:24:45.275Z,4.80
2023-04-09T16:27:14.535Z,4.00
2023-04-09T16:29:42.978Z,5.57
2023-04-09T16:32:11.472Z,4.37
2023-04-09T16:34:39.822Z,4.27
2023-04-09T16:37:08.579Z,3.50
2023-04-09T16:39:38.318Z,5.60
2023-04-09T16:42:07.138Z,4.73
2023-04-09T16:44:35.773Z,4.80
2023-04-09T16:47:04.120Z,5.00
2023-04-09T16:49:32.604Z,5.17
2023-04-09T16:52:00.983Z,5.53
2023-04-09T16:54:29.314Z,4.60
2023-04-09T16:56:59.147Z,4.47
2023-04-09T16:59:27.510Z,5.17
2023-04-09T17:01:56.188Z,4.97
2023-04-09T17:04:24.619Z,4.87
2023-04-09T17:06:53.091Z,5.10
2023-04-09T17:09:21.432Z,4.73
2023-04-09T17:11:52.925Z,4.77
2023-04-09T17:14:22.866Z,5.50
2023-04-09T17:16:52.987Z,4.43
2023-04-09T17:19:21.708Z,4.60
2023-04-09T17:21:50.057Z,5.37
2023-04-09T17:24:18.698Z,5.77
2023-04-09T17:26:47.071Z,4.90
2023-04-09T17:29:16.685Z,5.30
2023-04-09T17:31:46.474Z,4.87
2023-04-09T17:34:16.394Z,4.53
2023-04-09T17:36:47.053Z,5.10
2023-04-09T17:39:15.505Z,5.47
2023-04-09T17:41:43.887Z,4.73
2023-04-09T17:44:12.279Z,4.87
2023-04-09T17:46:40.641Z,5.73
2023-04-09T17:49:10.686Z,7.73
2023-04-09T17:51:39.371Z,5.40
2023-04-09T17:54:07.814Z,5.80
2023-04-09T17:56:39.025Z,5.40
2023-04-09T17:59:07.738Z,5.60
2023-04-09T18:01:36.299Z,4.50
2023-04-09T18:04:05.184Z,4.80
2023-04-09T18:06:35.137Z,5.30
2023-04-09T18:09:03.518Z,5.90
2023-04-09T18:11:31.990Z,5.70
2023-04-09T18:14:00.560Z,6.00
2023-04-09T18:16:29.074Z,6.97
2023-04-09T18:18:57.548Z,6.63
2023-04-09T18:21:27.059Z,5.50
2023-04-09T18:23:56.893Z,6.07
2023-04-09T18:26:25.563Z,5.77
2023-04-09T18:28:54.263Z,5.57
2023-04-09T18:31:23.183Z,4.80
2023-04-09T18:33:52.412Z,5.93
2023-04-09T18:36:20.727Z,5.80
2023-04-09T18:38:49.130Z,4.93
2023-04-09T18:41:24.779Z,5.50
2023-04-09T18:43:53.402Z,5.23
2023-04-09T18:46:22.894Z,5.20
2023-04-09T18:48:51.752Z,5.73
2023-04-09T18:51:20.986Z,6.17
2023-04-09T18:53:52.920Z,6.53
2023-04-09T18:56:22.979Z,6.70
2023-04-09T18:58:52.455Z,6.77
2023-04-09T19:01:21.213Z,6.43
2023-04-09T19:03:49.925Z,5.73
2023-04-09T19:06:19.643Z,5.87
2023-04-09T19:08:50.081Z,5.53
2023-04-09T19:11:18.424Z,7.93
2023-04-09T19:13:48.165Z,6.63
2023-04-09T19:16:17.076Z,6.60
2023-04-09T19:18:45.770Z,7.60
2023-04-09T19:21:14.208Z,6.43
2023-04-09T19:23:43.100Z,6.67
2023-04-09T19:26:12.120Z,8.53
2023-04-09T19:28:40.528Z,8.50
2023-04-09T19:31:12.693Z,8.90
2023-04-09T19:33:41.179Z,7.77
2023-04-09T19:36:09.555Z,8.57
2023-04-09T19:38:37.990Z,7.80
2023-04-09T19:41:06.826Z,8.87
2023-04-09T19:43:36.850Z,7.20
2023-04-09T19:46:08.444Z,8.90
2023-04-09T19:48:40.606Z,8.20
2023-04-09T19:51:09.013Z,8.50
2023-04-09T19:53:37.856Z,8.60
2023-04-09T19:56:07.213Z,9.50
2023-04-09T19:58:35.916Z,7.73
2023-04-09T20:01:04.293Z,7.87
2023-04-09T20:03:33.512Z,7.73
2023-04-09T20:06:08.562Z,7.27
2023-04-09T20:08:37.865Z,7.20
2023-04-09T20:11:07.949Z,7.37
2023-04-09T20:13:36.257Z,8.10
2023-04-09T20:16:05.521Z,7.60
2023-04-09T20:18:33.997Z,8.10
2023-04-09T20:21:03.737Z,8.27
2023-04-09T20:23:32.072Z,8.03
2023-04-09T20:26:00.886Z,7.67
2023-04-09T20:28:29.715Z,7.50
2023-04-09T20:30:58.131Z,8.73
2023-04-09T20:33:26.567Z,7.40
2023-04-09T20:35:55.055Z,7.10
2023-04-09T20:38:25.227Z,8.20
2023-04-09T20:40:53.689Z,7.57
2023-04-09T20:43:22.319Z,8.33
2023-04-09T20:45:50.671Z,8.43
2023-04-09T20:48:19.828Z,7.90
2023-04-09T20:50:48.160Z,9.00
2023-04-09T20:53:17.931Z,8.33
2023-04-09T20:55:47.674Z,9.00
2023-04-09T20:58:15.996Z,9.00
2023-04-09T21:00:44.324Z,10.63
2023-04-09T21:03:12.883Z,10.67
2023-04-09T21:05:41.399Z,11.57
2023-04-09T21:08:14.637Z,10.97
2023-04-09T21:10:43.102Z,13.03
2023-04-09T21:13:12.826Z,11.90
2023-04-09T21:15:41.207Z,11.20
2023-04-09T21:18:09.582Z,11.07
2023-04-09T21:20:37.991Z,11.10
2023-04-09T21:23:06.346Z,10.77
2023-04-09T21:25:34.834Z,11.17
2023-04-09T21:28:03.370Z,12.23
2023-04-09T21:30:33.661Z,11.00
2023-04-09T21:33:04.180Z,12.23
2023-04-09T21:35:32.770Z,11.80
2023-04-09T21:38:02.892Z,11.13
2023-04-09T21:40:31.786Z,11.23
2023-04-09T21:43:00.151Z,12.50
2023-04-09T21:45:28.472Z,12.03
2023-04-09T21:47:58.155Z,11.20
2023-04-09T21:50:26.553Z,12.73
2023-04-09T21:52:54.813Z,12.07
2023-04-09T21:55:23.363Z,12.27
2023-04-09T21:57:53.580Z,13.07
2023-04-09T22:00:21.970Z,14.07
2023-04-09T22:02:50.944Z,13.83
2023-04-09T22:05:20.801Z,12.30
2023-04-09T22:07:49.184Z,13.50
2023-04-09T22:10:17.575Z,12.50
2023-04-09T22:12:46.142Z,13.13
2023-04-09T22:15:14.597Z,13.73
2023-04-09T22:17:42.990Z,12.60
2023-04-09T22:20:11.918Z,13.23
2023-04-09T22:22:42.503Z,16.17
2023-04-09T22:25:12.346Z,12.87
2023-04-09T22:27:40.739Z,15.00
2023-04-09T22:30:10.332Z,11.83
2023-04-09T22:32:38.769Z,12.40
2023-04-09T22:35:07.898Z,12.30
2023-04-09T22:37:36.277Z,13.17
2023-04-09T22:40:14.044Z,15.60
2023-04-09T22:42:43.250Z,12.50
2023-04-09T22:45:12.248Z,13.83
2023-04-09T22:47:40.845Z,12.63
2023-04-09T22:50:11.215Z,12.00
2023-04-09T22:52:39.554Z,12.77
2023-04-09T22:55:11.059Z,11.73
2023-04-09T22:57:42.704Z,13.67
2023-04-09T23:00:11.844Z,12.43
2023-04-09T23:02:40.826Z,12.20
2023-04-09T23:05:11.138Z,12.20
2023-04-09T23:07:39.569Z,12.70
2023-04-09T23:10:14.182Z,12.33
2023-04-09T23:12:42.739Z,13.10
2023-04-09T23:15:12.446Z,12.37
2023-04-09T23:17:41.615Z,13.97
2023-04-09T23:20:14.773Z,13.60
2023-04-09T23:22:43.400Z,12.87
2023-04-09T23:25:14.114Z,13.17
2023-04-09T23:27:42.658Z,12.57
2023-04-09T23:30:16.625Z,12.20
2023-04-09T23:32:45.936Z,11.90
2023-04-09T23:35:14.405Z,11.40
2023-04-09T23:37:43.739Z,12.00
2023-04-09T23:40:15.205Z,13.00
2023-04-09T23:42:43.625Z,15.53
2023-04-09T23:45:13.010Z,14.33
2023-04-09T23:47:42.341Z,10.90
2023-04-09T23:50:11.730Z,11.90
2023-04-09T23:52:40.223Z,12.80
2023-04-09T23:55:09.787Z,12.93
2023-04-09T23:57:39.970Z,13.97
